createdAt,value
2023-03-17T00:01:03.551Z,1.63
2023-03-17T00:04:10.952Z,1.65
2023-03-17T00:07:17.443Z,1.67
2023-03-17T00:10:26.858Z,1.72
2023-03-17T00:13:33.970Z,1.54
2023-03-17T00:16:40.217Z,1.29
2023-03-17T00:19:43.579Z,1.52
2023-03-17T00:22:46.606Z,1.52
2023-03-17T00:25:50.259Z,1.40
2023-03-17T00:28:57.314Z,1.26
2023-03-17T00:32:00.777Z,1.14
2023-03-17T00:35:16.094Z,1.23
2023-03-17T00:38:21.672Z,1.28
2023-03-17T00:41:25.468Z,1.05
2023-03-17T00:44:29.054Z,1.05
2023-03-17T00:47:33.129Z,1.23
2023-03-17T00:50:36.515Z,1.29
2023-03-17T00:53:40.619Z,0.91
2023-03-17T00:56:44.800Z,0.64
2023-03-17T00:59:48.143Z,0.63
2023-03-17T01:02:53.328Z,0.71
2023-03-17T01:05:59.732Z,0.77
2023-03-17T01:09:05.178Z,0.72
2023-03-17T01:12:13.872Z,0.52
2023-03-17T01:15:17.728Z,0.62
2023-03-17T01:18:23.042Z,0.56
2023-03-17T01:21:26.649Z,0.61
2023-03-17T01:24:29.736Z,0.62
2023-03-17T01:27:36.744Z,0.68
2023-03-17T01:30:40.769Z,0.57
2023-03-17T01:33:43.968Z,0.70
2023-03-17T01:36:47.541Z,0.71
2023-03-17T01:39:51.600Z,0.67
2023-03-17T01:43:03.212Z,0.73
2023-03-17T01:46:26.047Z,0.63
2023-03-17T01:49:35.710Z,0.62
2023-03-17T01:52:40.697Z,0.61
2023-03-17T01:55:45.803Z,0.50
2023-03-17T01:58:52.372Z,0.39
2023-03-17T02:02:03.042Z,0.40
2023-03-17T02:05:09.445Z,0.35
2023-03-17T02:08:14.920Z,0.38
2023-03-17T02:11:19.314Z,0.27
2023-03-17T02:14:22.556Z,0.15
2023-03-17T02:17:28.018Z,0.21
2023-03-17T02:20:31.272Z,0.03
2023-03-17T02:23:34.738Z,0.03
2023-03-17T02:26:38.787Z,-0.13
2023-03-17T02:29:46.373Z,-0.15
2023-03-17T02:32:51.136Z,-0.29
2023-03-17T02:35:54.287Z,-0.32
2023-03-17T02:38:57.885Z,-0.44
2023-03-17T02:42:01.391Z,-0.56
2023-03-17T02:45:05.552Z,-0.39
2023-03-17T02:48:09.439Z,-0.40
2023-03-17T02:51:14.237Z,-0.57
2023-03-17T02:54:17.715Z,-0.51
2023-03-17T02:57:20.818Z,-0.47
2023-03-17T03:00:24.339Z,-0.46
2023-03-17T03:03:27.732Z,-0.48
2023-03-17T03:06:31.974Z,-0.71
2023-03-17T03:09:35.333Z,-0.59
2023-03-17T03:12:38.569Z,-0.67
2023-03-17T03:15:43.449Z,-0.84
2023-03-17T03:18:46.647Z,-0.67
2023-03-17T03:21:49.950Z,-0.55
2023-03-17T03:24:53.268Z,-0.56
2023-03-17T03:27:56.352Z,-0.46
2023-03-17T03:30:59.564Z,-0.40
2023-03-17T03:34:02.731Z,-0.50
2023-03-17T03:37:06.169Z,-0.45
2023-03-17T03:40:10.083Z,-0.46
2023-03-17T03:43:22.879Z,-0.49
2023-03-17T03:46:26.965Z,-0.49
2023-03-17T03:49:30.527Z,-0.40
2023-03-17T03:52:34.573Z,-0.53
2023-03-17T03:55:37.653Z,-0.53
2023-03-17T03:58:42.071Z,-0.46
2023-03-17T04:01:45.879Z,-0.41
2023-03-17T04:04:49.279Z,-0.44
2023-03-17T04:07:52.394Z,-0.47
2023-03-17T04:10:55.581Z,-0.35
2023-03-17T04:13:58.708Z,-0.40
2023-03-17T04:17:02.363Z,-0.54
2023-03-17T04:20:06.053Z,-0.47
2023-03-17T04:23:09.063Z,-0.51
2023-03-17T04:26:12.112Z,-0.60
2023-03-17T04:29:16.180Z,-0.47
2023-03-17T04:32:19.868Z,-0.56
2023-03-17T04:35:23.136Z,-0.58
2023-03-17T04:38:26.225Z,-0.60
2023-03-17T04:41:29.480Z,-0.63
2023-03-17T04:44:33.019Z,-0.65
2023-03-17T04:47:36.140Z,-0.66
2023-03-17T04:50:39.265Z,-0.56
2023-03-17T04:53:43.071Z,-0.64
2023-03-17T04:56:46.601Z,-0.57
2023-03-17T04:59:49.703Z,-0.58
2023-03-17T05:02:53.128Z,-0.61
2023-03-17T05:05:58.032Z,-0.60
2023-03-17T05:09:01.384Z,-0.46
2023-03-17T05:12:05.280Z,-0.01
2023-03-17T05:15:08.831Z,0.36
2023-03-17T05:18:11.913Z,0.68
2023-03-17T05:21:15.823Z,1.19
2023-03-17T05:24:19.452Z,1.52
2023-03-17T05:27:23.467Z,1.87
2023-03-17T05:30:28.020Z,2.58
2023-03-17T05:33:31.656Z,3.02
2023-03-17T05:36:34.868Z,3.48
2023-03-17T05:39:38.541Z,3.94
2023-03-17T05:42:42.035Z,4.12
2023-03-17T05:45:45.698Z,4.53
2023-03-17T05:48:48.955Z,5.29
2023-03-17T05:51:52.538Z,5.71
2023-03-17T05:54:55.770Z,5.51
2023-03-17T05:58:01.076Z,6.18
2023-03-17T06:01:04.485Z,6.43
2023-03-17T06:04:08.046Z,6.51
2023-03-17T06:07:12.314Z,6.82
2023-03-17T06:10:15.607Z,6.48
2023-03-17T06:13:18.687Z,6.28
2023-03-17T06:16:22.718Z,6.22
2023-03-17T06:19:26.307Z,6.22
2023-03-17T06:22:29.824Z,6.29
2023-03-17T06:25:37.270Z,6.19
2023-03-17T06:28:40.351Z,6.18
2023-03-17T06:31:50.397Z,5.86
2023-03-17T06:34:54.009Z,6.23
2023-03-17T06:37:58.278Z,6.23
2023-03-17T06:41:02.225Z,6.39
2023-03-17T06:44:05.875Z,6.68
2023-03-17T06:47:09.062Z,6.76
2023-03-17T06:50:12.902Z,6.59
2023-03-17T06:53:17.001Z,6.93
2023-03-17T06:56:29.790Z,7.24
2023-03-17T06:59:34.537Z,7.48
2023-03-17T07:02:37.542Z,7.53
2023-03-17T07:05:41.158Z,7.70
2023-03-17T07:08:45.034Z,8.28
2023-03-17T07:11:48.113Z,8.74
2023-03-17T07:14:51.268Z,8.75
2023-03-17T07:17:54.524Z,8.65
2023-03-17T07:21:02.168Z,8.47
2023-03-17T07:24:05.773Z,7.99
2023-03-17T07:27:09.529Z,8.23
2023-03-17T07:30:15.083Z,8.57
2023-03-17T07:33:21.366Z,8.45
2023-03-17T07:36:25.127Z,8.38
2023-03-17T07:39:28.645Z,8.32
2023-03-17T07:42:31.694Z,8.56
2023-03-17T07:45:36.221Z,8.73
2023-03-17T07:48:42.338Z,9.09
2023-03-17T07:51:45.539Z,8.80
2023-03-17T07:54:48.988Z,8.81
2023-03-17T07:57:52.886Z,8.95
2023-03-17T08:00:57.860Z,8.74
2023-03-17T08:04:01.823Z,9.08
2023-03-17T08:07:06.549Z,8.91
2023-03-17T08:10:13.455Z,9.15
2023-03-17T08:13:17.084Z,9.24
2023-03-17T08:16:19.937Z,9.59
2023-03-17T08:19:24.487Z,9.35
2023-03-17T08:22:27.857Z,9.31
2023-03-17T08:25:32.141Z,9.11
2023-03-17T08:28:36.043Z,8.97
2023-03-17T08:31:40.565Z,9.14
2023-03-17T08:34:44.578Z,9.51
2023-03-17T08:37:48.282Z,9.51
2023-03-17T08:40:51.439Z,9.89
2023-03-17T08:43:55.159Z,9.98
2023-03-17T08:46:59.040Z,9.88
2023-03-17T08:50:05.608Z,9.95
2023-03-17T08:53:09.004Z,10.46
2023-03-17T08:56:12.888Z,10.44
2023-03-17T08:59:17.007Z,10.67
2023-03-17T09:02:21.502Z,10.84
2023-03-17T09:05:25.381Z,10.98
2023-03-17T09:08:29.351Z,10.31
2023-03-17T09:11:32.922Z,10.27
2023-03-17T09:14:43.342Z,10.48
2023-03-17T09:17:47.166Z,10.87
2023-03-17T09:20:52.395Z,10.69
2023-03-17T09:23:56.209Z,11.00
2023-03-17T09:27:01.430Z,11.42
2023-03-17T09:30:04.636Z,11.33
2023-03-17T09:33:07.731Z,11.51
2023-03-17T09:36:11.344Z,11.74
2023-03-17T09:39:14.912Z,11.54
2023-03-17T09:42:30.309Z,11.71
2023-03-17T09:45:43.649Z,11.54
2023-03-17T09:49:01.504Z,11.21
2023-03-17T09:52:13.999Z,10.99
2023-03-17T09:55:26.462Z,11.28
2023-03-17T09:58:33.974Z,11.41
2023-03-17T10:01:41.998Z,11.60
2023-03-17T10:04:46.491Z,11.48
2023-03-17T10:08:29.431Z,11.64
2023-03-17T10:11:42.836Z,11.82
2023-03-17T10:15:28.130Z,11.97
2023-03-17T10:18:40.897Z,12.02
2023-03-17T10:21:51.819Z,12.07
2023-03-17T10:25:02.358Z,12.14
2023-03-17T10:28:31.980Z,12.28
2023-03-17T10:31:38.226Z,12.53
2023-03-17T10:34:43.613Z,12.38
2023-03-17T10:37:47.870Z,12.72
2023-03-17T10:41:05.783Z,12.55
2023-03-17T10:44:21.590Z,12.59
2023-03-17T10:47:31.759Z,12.85
2023-03-17T10:50:41.153Z,12.95
2023-03-17T10:53:44.142Z,13.22
2023-03-17T10:56:50.264Z,13.48
2023-03-17T10:59:55.718Z,13.58
2023-03-17T11:03:00.230Z,13.90
2023-03-17T11:06:07.108Z,14.15
2023-03-17T11:09:16.941Z,14.36
2023-03-17T11:12:25.690Z,14.17
2023-03-17T11:15:41.449Z,13.65
2023-03-17T11:18:48.503Z,13.26
2023-03-17T11:22:10.170Z,13.18
2023-03-17T11:25:20.280Z,13.78
2023-03-17T11:28:31.242Z,13.66
2023-03-17T11:31:45.417Z,12.79
2023-03-17T11:35:08.742Z,13.07
2023-03-17T11:38:33.664Z,12.86
2023-03-17T11:42:01.922Z,12.96
2023-03-17T11:45:09.729Z,12.91
2023-03-17T11:48:18.135Z,13.05
2023-03-17T11:51:43.574Z,13.05
2023-03-17T11:54:50.820Z,13.06
2023-03-17T11:58:10.780Z,13.05
2023-03-17T12:01:24.012Z,13.07
2023-03-17T12:04:35.500Z,13.29
2023-03-17T12:07:48.237Z,13.20
2023-03-17T12:10:55.709Z,13.09
2023-03-17T12:14:05.955Z,12.91
2023-03-17T12:17:27.315Z,12.73
2023-03-17T12:21:10.502Z,12.85
2023-03-17T12:24:40.202Z,12.92
2023-03-17T12:27:54.317Z,12.80
2023-03-17T12:31:12.706Z,12.91
2023-03-17T12:34:33.058Z,12.74
2023-03-17T12:37:36.910Z,12.52
2023-03-17T12:41:08.458Z,12.29
2023-03-17T12:44:47.513Z,12.45
2023-03-17T12:48:08.824Z,12.66
2023-03-17T12:51:40.106Z,12.28
2023-03-17T12:54:51.769Z,12.43
2023-03-17T12:58:03.625Z,12.31
2023-03-17T13:01:17.577Z,12.21
2023-03-17T13:04:27.390Z,12.41
2023-03-17T13:07:54.902Z,12.36
2023-03-17T13:11:18.664Z,12.41
2023-03-17T13:14:27.207Z,12.13
2023-03-17T13:17:32.813Z,12.21
2023-03-17T13:20:39.412Z,12.25
2023-03-17T13:23:57.123Z,12.28
2023-03-17T13:27:02.213Z,12.31
2023-03-17T13:30:37.740Z,12.07
2023-03-17T13:33:46.031Z,11.85
2023-03-17T13:37:16.427Z,11.93
2023-03-17T13:40:54.265Z,11.84
2023-03-17T13:44:37.054Z,11.60
2023-03-17T13:47:42.727Z,11.66
2023-03-17T13:50:46.845Z,11.87
2023-03-17T13:54:08.958Z,11.86
2023-03-17T13:57:25.660Z,11.68
2023-03-17T14:00:33.421Z,11.45
2023-03-17T14:03:47.692Z,11.43
2023-03-17T14:06:54.016Z,11.37
2023-03-17T14:10:01.514Z,11.26
2023-03-17T14:13:46.021Z,11.12
2023-03-17T14:17:12.506Z,11.16
2023-03-17T14:20:16.671Z,11.38
2023-03-17T14:23:21.520Z,11.46
2023-03-17T14:26:27.325Z,11.27
2023-03-17T14:29:33.160Z,11.24
2023-03-17T14:32:37.018Z,11.20
2023-03-17T14:35:43.543Z,11.32
2023-03-17T14:38:52.715Z,11.30
2023-03-17T14:41:59.959Z,11.17
2023-03-17T14:45:08.732Z,11.24
2023-03-17T14:48:21.347Z,11.11
2023-03-17T14:51:24.715Z,11.11
2023-03-17T14:54:35.952Z,11.02
2023-03-17T14:57:39.408Z,10.94
2023-03-17T15:00:52.677Z,10.88
2023-03-17T15:04:07.904Z,10.80
2023-03-17T15:07:31.330Z,10.61
2023-03-17T15:10:43.769Z,10.81
2023-03-17T15:13:48.281Z,10.73
2023-03-17T15:16:52.742Z,10.83
2023-03-17T15:20:00.613Z,10.87
2023-03-17T15:23:06.667Z,10.83
2023-03-17T15:26:23.015Z,10.88
2023-03-17T15:29:26.515Z,10.77
2023-03-17T15:32:29.787Z,10.66
2023-03-17T15:35:33.008Z,10.66
2023-03-17T15:38:39.135Z,10.69
2023-03-17T15:41:42.827Z,10.78
2023-03-17T15:44:46.142Z,10.73
2023-03-17T15:47:49.666Z,10.44
2023-03-17T15:50:55.510Z,10.49
2023-03-17T15:53:58.508Z,10.54
2023-03-17T15:57:01.604Z,10.54
2023-03-17T16:00:05.056Z,10.42
2023-03-17T16:03:33.912Z,10.41
2023-03-17T16:06:37.278Z,10.43
2023-03-17T16:09:41.038Z,10.28
2023-03-17T16:12:44.829Z,10.30
2023-03-17T16:16:05.543Z,10.25
2023-03-17T16:19:18.858Z,10.08
2023-03-17T16:22:34.129Z,9.91
2023-03-17T16:25:37.812Z,9.82
2023-03-17T16:28:41.964Z,9.70
2023-03-17T16:31:49.340Z,9.71
2023-03-17T16:34:52.688Z,9.64
2023-03-17T16:37:56.410Z,9.63
2023-03-17T16:41:02.273Z,9.52
2023-03-17T16:44:08.169Z,9.47
2023-03-17T16:47:11.371Z,9.45
2023-03-17T16:50:21.012Z,9.42
2023-03-17T16:53:25.325Z,9.30
2023-03-17T16:56:28.693Z,9.37
2023-03-17T16:59:33.879Z,9.19
2023-03-17T17:02:37.398Z,9.18
2023-03-17T17:05:41.813Z,9.18
2023-03-17T17:08:46.998Z,9.09
2023-03-17T17:11:50.268Z,9.06
2023-03-17T17:14:53.588Z,9.04
2023-03-17T17:18:00.653Z,8.97
2023-03-17T17:21:04.147Z,8.86
2023-03-17T17:24:11.792Z,8.83
2023-03-17T17:27:15.505Z,8.76
2023-03-17T17:30:22.208Z,8.89
2023-03-17T17:33:26.017Z,8.88
2023-03-17T17:36:29.229Z,8.77
2023-03-17T17:39:32.969Z,8.68
2023-03-17T17:42:36.888Z,8.61
2023-03-17T17:45:40.410Z,8.50
2023-03-17T17:48:44.453Z,8.44
2023-03-17T17:51:47.990Z,8.41
2023-03-17T17:54:51.289Z,8.30
2023-03-17T17:57:54.574Z,8.22
2023-03-17T18:00:58.443Z,8.26
2023-03-17T18:04:02.036Z,8.19
2023-03-17T18:07:05.402Z,7.96
2023-03-17T18:10:13.165Z,7.92
2023-03-17T18:13:17.358Z,8.00
2023-03-17T18:16:21.071Z,7.80
2023-03-17T18:19:24.468Z,7.70
2023-03-17T18:22:28.362Z,7.73
2023-03-17T18:25:31.658Z,7.70
2023-03-17T18:28:35.004Z,7.66
2023-03-17T18:31:48.064Z,7.47
2023-03-17T18:34:51.780Z,7.43
2023-03-17T18:37:57.735Z,7.38
2023-03-17T18:41:01.861Z,7.31
2023-03-17T18:44:10.238Z,7.12
2023-03-17T18:47:16.117Z,6.82
2023-03-17T18:50:22.174Z,6.91
2023-03-17T18:53:25.594Z,6.89
2023-03-17T18:56:29.958Z,6.98
2023-03-17T18:59:33.430Z,7.16
2023-03-17T19:02:38.111Z,7.28
2023-03-17T19:05:41.776Z,7.11
2023-03-17T19:08:45.380Z,7.13
2023-03-17T19:11:48.420Z,7.02
2023-03-17T19:14:52.301Z,7.04
2023-03-17T19:17:55.879Z,6.94
2023-03-17T19:20:59.590Z,6.93
2023-03-17T19:24:05.166Z,6.88
2023-03-17T19:27:09.022Z,6.76
2023-03-17T19:30:13.137Z,6.68
2023-03-17T19:33:16.860Z,6.64
2023-03-17T19:36:23.609Z,6.51
2023-03-17T19:39:27.150Z,6.36
2023-03-17T19:42:30.545Z,6.21
2023-03-17T19:45:34.560Z,5.99
2023-03-17T19:48:38.528Z,5.98
2023-03-17T19:51:42.550Z,5.90
2023-03-17T19:54:46.198Z,5.87
2023-03-17T19:57:50.022Z,5.64
2023-03-17T20:01:13.795Z,5.76
2023-03-17T20:04:21.973Z,5.83
2023-03-17T20:07:25.126Z,5.77
2023-03-17T20:10:29.211Z,5.80
2023-03-17T20:13:33.483Z,5.67
2023-03-17T20:16:37.199Z,5.53
2023-03-17T20:19:41.127Z,5.39
2023-03-17T20:22:45.538Z,5.35
2023-03-17T20:25:52.786Z,5.39
2023-03-17T20:28:56.313Z,5.43
2023-03-17T20:32:02.211Z,5.36
2023-03-17T20:35:07.886Z,5.30
2023-03-17T20:38:13.577Z,5.30
2023-03-17T20:41:18.717Z,5.29
2023-03-17T20:44:24.028Z,5.32
2023-03-17T20:47:28.337Z,5.33
2023-03-17T20:50:33.652Z,5.30
2023-03-17T20:53:37.666Z,5.19
2023-03-17T20:56:40.873Z,5.16
2023-03-17T20:59:44.033Z,5.17
2023-03-17T21:02:50.469Z,5.13
2023-03-17T21:05:54.236Z,5.10
2023-03-17T21:08:57.937Z,5.13
2023-03-17T21:12:01.611Z,5.02
2023-03-17T21:15:06.350Z,5.10
2023-03-17T21:18:12.829Z,5.14
2023-03-17T21:21:16.806Z,5.17
2023-03-17T21:24:34.176Z,4.93
2023-03-17T21:27:38.951Z,4.91
2023-03-17T21:30:45.308Z,4.90
2023-03-17T21:33:50.770Z,4.86
2023-03-17T21:36:54.464Z,4.75
2023-03-17T21:39:57.559Z,4.62
2023-03-17T21:43:01.798Z,4.43
2023-03-17T21:46:05.609Z,4.34
2023-03-17T21:49:09.371Z,4.26
2023-03-17T21:52:15.081Z,3.93
2023-03-17T21:55:18.342Z,3.84
2023-03-17T21:58:22.147Z,3.63
2023-03-17T22:01:26.289Z,3.56
2023-03-17T22:04:30.257Z,3.63
2023-03-17T22:07:33.603Z,3.66
2023-03-17T22:10:39.512Z,3.69
2023-03-17T22:13:43.359Z,3.67
2023-03-17T22:16:47.669Z,3.70
2023-03-17T22:19:53.228Z,3.74
2023-03-17T22:22:56.941Z,3.46
2023-03-17T22:26:00.802Z,3.46
2023-03-17T22:29:04.205Z,3.37
2023-03-17T22:32:08.371Z,3.44
2023-03-17T22:35:12.158Z,3.34
2023-03-17T22:38:15.230Z,3.31
2023-03-17T22:41:22.006Z,3.18
2023-03-17T22:44:26.032Z,3.12
2023-03-17T22:47:29.394Z,3.09
2023-03-17T22:50:33.152Z,3.04
2023-03-17T22:53:37.833Z,3.13
2023-03-17T22:56:41.077Z,3.07
2023-03-17T22:59:44.402Z,2.97
2023-03-17T23:02:48.021Z,2.99
2023-03-17T23:05:53.477Z,2.94
2023-03-17T23:08:56.478Z,2.90
2023-03-17T23:12:00.802Z,2.82
2023-03-17T23:15:04.917Z,2.67
2023-03-17T23:18:08.118Z,2.61
2023-03-17T23:21:18.670Z,2.57
2023-03-17T23:24:21.968Z,2.66
2023-03-17T23:27:24.963Z,2.72
2023-03-17T23:30:27.846Z,2.73
2023-03-17T23:33:31.186Z,2.65
2023-03-17T23:36:35.614Z,2.52
2023-03-17T23:39:39.001Z,2.52
2023-03-17T23:42:43.493Z,2.62
2023-03-17T23:45:46.685Z,2.55
2023-03-17T23:48:53.327Z,2.46
2023-03-17T23:51:57.255Z,2.33
2023-03-17T23:55:01.278Z,2.33
2023-03-17T23:58:05.027Z,2.39
